หน้าหลัก
METAR-TAF:

METAR-TAF

ท่าอากาศยาน :

Meierwik

Glücksburg, เยอรมนี

ละติจูด: 54-50N, ลองจิจูด: 009-30E, ความสูง: 27 ม.

การสังเกตสภาพอากาศปัจจุบัน

รายงานได้ทำขึ้นเมื่อ 41 นาทีที่แล้ว ณ เวลา 22:20 UTC
ลม 11 นอตจากตะวันออก/ตะวันออกเฉียงเหนือโดยมีลมกระโชกได้ถึง21 นอต
อุณหภูมิ 17°C
ความชื้น 94%
ความกดอากาศ 1005 hPa
ทัศนวิสัย 10 กม. หรือมากกว่า

METAR: ETGG 122220Z AUTO 06011G21KT 9999 // ////// 17/16 Q1005 ///

เวลา: 01:01 (23:01 UTC)


TAF: หายไป

สังเกตการณ์สภาพอากาศและพยากรณ์อากาศของสนามบินมากกว่า 4000 แห่ง (รายงาน METAR และ TAF).

สถานีที่ดูได้จะแสดงไว้ด้วยจุดสีเหลืองและสีแดงบนแผนที่.

เลื่อนเมาส์ไปเหนือจุดเพื่อดูชื่อสถานี.

แล้วคลิกเพื่อดูสังเกตการณ์และการพยากรณ์สภาพอากาศ.

ในการเปลี่ยนแผนที่: คลิกที่ปุ่มสีเขียวที่มีกากบาทสีดำเพื่อซูมเข้า; ที่ปุ่มสีเขียวที่มีขีดเพื่อซูมออก; หรือที่ลูกศรสีเขียวเพื่อไปยังแผนที่ที่อยู่ติดกัน.


METAR-TAF: